createdAt,value
2023-01-07T00:01:02.263Z,71.47
2023-01-07T00:05:06.081Z,71.33
2023-01-07T00:09:16.882Z,71.54
2023-01-07T00:13:19.960Z,71.37
2023-01-07T00:17:23.320Z,71.21
2023-01-07T00:21:27.767Z,71.32
2023-01-07T00:25:32.510Z,71.48
2023-01-07T00:29:35.700Z,71.21
2023-01-07T00:33:46.956Z,71.20
2023-01-07T00:37:53.349Z,71.31
2023-01-07T00:42:15.463Z,71.01
2023-01-07T00:46:19.008Z,71.10
2023-01-07T00:50:22.762Z,70.83
2023-01-07T00:54:25.779Z,70.66
2023-01-07T00:58:31.618Z,70.92
2023-01-07T01:02:34.879Z,70.82
2023-01-07T01:06:38.316Z,71.23
2023-01-07T01:10:41.542Z,70.81
2023-01-07T01:14:46.713Z,71.08
2023-01-07T01:18:50.004Z,71.49
2023-01-07T01:22:53.130Z,71.78
2023-01-07T01:26:56.112Z,71.97
2023-01-07T01:31:01.030Z,71.87
2023-01-07T01:35:04.266Z,72.07
2023-01-07T01:39:07.539Z,71.78
2023-01-07T01:43:27.349Z,72.03
2023-01-07T01:47:38.792Z,71.90
2023-01-07T01:51:46.477Z,71.57
2023-01-07T01:55:53.190Z,71.79
2023-01-07T02:00:11.085Z,71.94
2023-01-07T02:04:19.924Z,71.99
2023-01-07T02:08:23.438Z,72.02
2023-01-07T02:12:40.769Z,72.23
2023-01-07T02:16:50.564Z,72.16
2023-01-07T02:21:18.070Z,71.94
2023-01-07T02:25:50.867Z,71.80
2023-01-07T02:30:37.443Z,71.99
2023-01-07T02:34:51.098Z,71.66
2023-01-07T02:39:08.327Z,71.99
2023-01-07T02:43:18.434Z,71.73
2023-01-07T02:47:28.815Z,71.73
2023-01-07T02:51:37.771Z,71.58
2023-01-07T02:55:51.059Z,71.63
2023-01-07T03:00:15.261Z,71.70
2023-01-07T03:04:35.467Z,71.79
2023-01-07T03:08:55.296Z,71.78
2023-01-07T03:13:05.316Z,71.48
2023-01-07T03:17:14.057Z,71.38
2023-01-07T03:21:19.621Z,71.32
2023-01-07T03:25:27.838Z,71.50
2023-01-07T03:29:32.890Z,71.63
2023-01-07T03:33:42.803Z,71.90
2023-01-07T03:37:48.290Z,72.17
2023-01-07T03:42:11.201Z,71.82
2023-01-07T03:46:14.201Z,71.88
2023-01-07T03:50:18.335Z,72.23
2023-01-07T03:54:21.886Z,71.66
2023-01-07T03:58:26.511Z,71.80
2023-01-07T04:02:29.573Z,71.77
2023-01-07T04:06:33.799Z,72.14
2023-01-07T04:10:37.302Z,71.97
2023-01-07T04:14:42.036Z,71.84
2023-01-07T04:18:45.008Z,71.62
2023-01-07T04:22:48.923Z,72.26
2023-01-07T04:26:52.227Z,72.19
2023-01-07T04:31:00.451Z,72.45
2023-01-07T04:35:03.664Z,72.44
2023-01-07T04:39:06.679Z,72.17
2023-01-07T04:43:10.757Z,72.09
2023-01-07T04:47:15.507Z,72.18
2023-01-07T04:51:20.548Z,72.32
2023-01-07T04:55:23.560Z,72.44
2023-01-07T04:59:26.855Z,72.38
2023-01-07T05:03:31.523Z,72.31
2023-01-07T05:07:34.707Z,72.09
2023-01-07T05:11:37.922Z,71.65
2023-01-07T05:15:41.185Z,71.72
2023-01-07T05:19:46.017Z,71.70
2023-01-07T05:23:49.262Z,71.86
2023-01-07T05:27:53.535Z,72.04
2023-01-07T05:31:56.720Z,72.13
2023-01-07T05:36:02.348Z,71.85
2023-01-07T05:40:07.192Z,71.97
2023-01-07T05:44:10.399Z,72.02
2023-01-07T05:48:16.969Z,72.28
2023-01-07T05:52:21.643Z,72.39
2023-01-07T05:56:25.230Z,72.62
2023-01-07T06:00:28.219Z,72.73
2023-01-07T06:04:31.625Z,73.04
2023-01-07T06:08:37.180Z,72.90
2023-01-07T06:12:40.491Z,73.06
2023-01-07T06:16:43.399Z,73.43
2023-01-07T06:20:48.011Z,73.43
2023-01-07T06:24:52.939Z,73.27
2023-01-07T06:28:56.463Z,73.44
2023-01-07T06:32:59.664Z,73.75
2023-01-07T06:37:03.117Z,73.35
2023-01-07T06:41:07.904Z,73.14
2023-01-07T06:45:12.296Z,73.38
2023-01-07T06:49:15.605Z,73.31
2023-01-07T06:53:18.987Z,73.50
2023-01-07T06:57:23.939Z,73.78
2023-01-07T07:01:27.381Z,73.84
2023-01-07T07:05:30.806Z,73.95
2023-01-07T07:09:33.870Z,73.92
2023-01-07T07:13:38.685Z,74.10
2023-01-07T07:17:42.051Z,74.19
2023-01-07T07:21:45.544Z,74.43
2023-01-07T07:25:48.707Z,74.38
2023-01-07T07:29:53.372Z,74.67
2023-01-07T07:33:56.892Z,74.95
2023-01-07T07:38:00.112Z,75.26
2023-01-07T07:42:05.126Z,75.65
2023-01-07T07:46:09.730Z,75.64
2023-01-07T07:50:13.063Z,75.54
2023-01-07T07:54:16.505Z,74.95
2023-01-07T07:58:19.751Z,74.50
2023-01-07T08:02:24.202Z,73.70
2023-01-07T08:06:27.441Z,73.02
2023-01-07T08:10:30.867Z,72.38
2023-01-07T08:14:34.099Z,71.29
2023-01-07T08:18:39.994Z,70.93
2023-01-07T08:22:43.516Z,70.12
2023-01-07T08:26:46.769Z,70.01
2023-01-07T08:30:49.894Z,69.45
2023-01-07T08:34:54.434Z,69.09
2023-01-07T08:38:57.951Z,68.98
2023-01-07T08:43:02.043Z,69.22
2023-01-07T08:47:05.376Z,68.92
2023-01-07T08:51:09.805Z,69.06
2023-01-07T08:55:13.137Z,68.63
2023-01-07T08:59:16.261Z,68.05
2023-01-07T09:03:19.964Z,67.48
2023-01-07T09:07:24.696Z,67.26
2023-01-07T09:11:27.989Z,65.49
2023-01-07T09:15:31.185Z,65.40
2023-01-07T09:19:34.451Z,64.30
2023-01-07T09:23:39.011Z,63.54
2023-01-07T09:27:42.433Z,63.61
2023-01-07T09:31:45.843Z,63.72
2023-01-07T09:35:49.123Z,63.63
2023-01-07T09:39:53.831Z,62.73
2023-01-07T09:44:11.448Z,62.77
2023-01-07T09:48:22.561Z,62.99
2023-01-07T09:52:28.279Z,61.73
2023-01-07T09:56:35.358Z,61.27
2023-01-07T10:00:42.820Z,60.90
2023-01-07T10:04:56.288Z,61.59
2023-01-07T10:09:08.532Z,60.81
2023-01-07T10:13:32.717Z,60.86
2023-01-07T10:17:54.890Z,60.95
2023-01-07T10:22:03.002Z,58.97
2023-01-07T10:26:15.167Z,58.40
2023-01-07T10:30:26.268Z,60.75
2023-01-07T10:34:37.242Z,59.00
2023-01-07T10:38:43.709Z,59.31
2023-01-07T10:42:55.833Z,59.04
2023-01-07T10:47:11.081Z,59.13
2023-01-07T10:51:37.266Z,59.37
2023-01-07T10:55:52.345Z,56.36
2023-01-07T11:00:02.687Z,56.12
2023-01-07T11:04:18.037Z,56.70
2023-01-07T11:08:29.947Z,56.36
2023-01-07T11:12:40.043Z,56.00
2023-01-07T11:16:51.319Z,55.29
2023-01-07T11:20:57.447Z,54.52
2023-01-07T11:25:02.305Z,53.33
2023-01-07T11:29:17.192Z,55.20
2023-01-07T11:34:03.919Z,53.28
2023-01-07T11:37:51.300Z,52.86
2023-01-07T11:41:58.419Z,52.91
2023-01-07T11:46:19.418Z,53.29
2023-01-07T11:50:27.858Z,54.18
2023-01-07T11:54:35.805Z,53.62
2023-01-07T11:58:41.837Z,53.00
2023-01-07T12:02:46.273Z,53.26
2023-01-07T12:07:00.818Z,53.40
2023-01-07T12:11:09.311Z,53.51
2023-01-07T12:19:32.151Z,53.76
2023-01-07T12:23:46.116Z,52.97
2023-01-07T12:28:01.247Z,53.79
2023-01-07T12:32:16.266Z,53.11
2023-01-07T12:36:32.304Z,52.84
2023-01-07T12:40:40.926Z,52.50
2023-01-07T12:44:50.040Z,52.77
2023-01-07T12:49:05.198Z,53.08
2023-01-07T12:53:17.520Z,54.50
2023-01-07T12:57:29.655Z,54.55
2023-01-07T13:01:38.774Z,54.71
2023-01-07T13:05:49.537Z,53.87
2023-01-07T13:09:57.120Z,54.47
2023-01-07T13:14:01.180Z,53.97
2023-01-07T13:18:16.320Z,55.47
2023-01-07T13:22:29.531Z,54.04
2023-01-07T13:26:41.259Z,54.02
2023-01-07T13:31:01.026Z,53.92
2023-01-07T13:35:31.023Z,56.28
2023-01-07T13:39:51.013Z,54.71
2023-01-07T13:44:17.632Z,52.95
2023-01-07T13:48:24.461Z,53.75
2023-01-07T13:52:32.954Z,53.77
2023-01-07T13:56:40.684Z,53.91
2023-01-07T14:06:45.213Z,55.91
2023-01-07T14:10:54.815Z,55.59
2023-01-07T14:15:23.377Z,55.99
2023-01-07T14:19:34.586Z,56.55
2023-01-07T14:23:45.946Z,56.77
2023-01-07T14:28:06.045Z,57.33
2023-01-07T14:32:32.798Z,58.41
2023-01-07T14:37:12.895Z,58.00
2023-01-07T14:41:18.211Z,56.97
2023-01-07T14:46:01.150Z,58.31
2023-01-07T14:50:20.393Z,57.66
2023-01-07T14:54:50.626Z,58.38
2023-01-07T14:59:12.751Z,58.11
2023-01-07T15:03:34.748Z,57.82
2023-01-07T15:07:43.057Z,57.86
2023-01-07T15:12:06.159Z,57.99
2023-01-07T15:16:11.838Z,59.94
2023-01-07T15:20:15.407Z,58.51
2023-01-07T15:24:30.796Z,59.90
2023-01-07T15:28:44.646Z,60.20
2023-01-07T15:32:55.015Z,60.65
2023-01-07T15:36:59.298Z,61.51
2023-01-07T15:41:04.440Z,62.07
2023-01-07T15:45:15.437Z,62.92
2023-01-07T15:49:21.856Z,63.34
2023-01-07T15:53:27.329Z,63.60
2023-01-07T15:57:35.032Z,63.93
2023-01-07T16:01:48.502Z,64.03
2023-01-07T16:05:53.274Z,64.18
2023-01-07T16:09:58.160Z,63.95
2023-01-07T16:14:05.551Z,64.24
2023-01-07T16:18:20.551Z,64.42
2023-01-07T16:22:26.237Z,64.72
2023-01-07T16:26:39.302Z,64.76
2023-01-07T16:30:45.633Z,64.77
2023-01-07T16:35:07.280Z,64.95
2023-01-07T16:39:21.779Z,64.88
2023-01-07T16:43:43.742Z,65.01
2023-01-07T16:48:01.521Z,65.08
2023-01-07T16:52:14.388Z,65.17
2023-01-07T16:56:17.906Z,65.36
2023-01-07T17:00:21.633Z,65.35
2023-01-07T17:04:30.072Z,65.32
2023-01-07T17:08:34.363Z,65.36
2023-01-07T17:12:39.243Z,65.69
2023-01-07T17:16:44.323Z,66.06
2023-01-07T17:20:54.021Z,66.05
2023-01-07T17:25:11.634Z,66.24
2023-01-07T17:29:16.739Z,66.18
2023-01-07T17:33:23.588Z,66.58
2023-01-07T17:37:30.102Z,66.63
2023-01-07T17:41:53.484Z,66.84
2023-01-07T17:45:57.028Z,66.99
2023-01-07T17:50:06.387Z,66.99
2023-01-07T17:54:25.717Z,67.04
2023-01-07T17:58:33.658Z,67.59
2023-01-07T18:02:48.130Z,68.03
2023-01-07T18:06:51.739Z,68.06
2023-01-07T18:11:14.952Z,68.13
2023-01-07T18:15:22.652Z,68.33
2023-01-07T18:19:25.853Z,68.28
2023-01-07T18:23:29.044Z,68.25
2023-01-07T18:27:33.883Z,68.38
2023-01-07T18:31:41.901Z,68.46
2023-01-07T18:35:44.941Z,68.55
2023-01-07T18:39:48.449Z,68.65
2023-01-07T18:43:54.326Z,68.54
2023-01-07T18:47:58.668Z,68.72
2023-01-07T18:52:01.729Z,68.47
2023-01-07T18:56:12.976Z,68.40
2023-01-07T19:00:19.617Z,68.72
2023-01-07T19:04:24.350Z,69.08
2023-01-07T19:08:28.047Z,69.72
2023-01-07T19:12:31.788Z,69.67
2023-01-07T19:16:46.002Z,70.08
2023-01-07T19:20:49.178Z,69.77
2023-01-07T19:24:53.024Z,69.72
2023-01-07T19:28:56.199Z,70.14
2023-01-07T19:33:02.713Z,70.53
2023-01-07T19:37:07.567Z,70.75
2023-01-07T19:41:13.362Z,70.98
2023-01-07T19:45:16.942Z,71.11
2023-01-07T19:49:21.525Z,70.95
2023-01-07T19:53:26.704Z,70.98
2023-01-07T19:57:31.007Z,71.50
2023-01-07T20:01:34.759Z,72.10
2023-01-07T20:05:39.379Z,72.08
2023-01-07T20:09:42.554Z,71.48
2023-01-07T20:13:48.720Z,71.92
2023-01-07T20:17:56.933Z,71.76
2023-01-07T20:22:04.796Z,72.31
2023-01-07T20:26:14.560Z,72.52
2023-01-07T20:30:20.907Z,72.93
2023-01-07T20:34:57.315Z,72.90
2023-01-07T20:39:06.508Z,73.64
2023-01-07T20:43:30.833Z,73.44
2023-01-07T20:47:39.334Z,73.63
2023-01-07T20:52:02.087Z,73.74
2023-01-07T20:56:19.713Z,73.17
2023-01-07T21:00:30.903Z,72.70
2023-01-07T21:04:34.019Z,72.13
2023-01-07T21:08:44.691Z,72.41
2023-01-07T21:13:01.576Z,72.88
2023-01-07T21:17:08.094Z,72.82
2023-01-07T21:21:23.399Z,72.58
2023-01-07T21:25:42.079Z,72.38
2023-01-07T21:34:34.480Z,72.53
2023-01-07T21:38:57.937Z,73.28
2023-01-07T21:43:03.043Z,74.87
2023-01-07T21:47:18.413Z,74.62
2023-01-07T21:51:30.762Z,75.12
2023-01-07T21:55:34.731Z,75.33
2023-01-07T21:59:49.214Z,75.32
2023-01-07T22:04:28.494Z,74.65
2023-01-07T22:08:55.354Z,75.09
2023-01-07T22:13:02.065Z,74.74
2023-01-07T22:17:11.350Z,74.83
2023-01-07T22:21:24.127Z,74.94
2023-01-07T22:25:44.699Z,74.05
2023-01-07T22:30:00.970Z,74.13
2023-01-07T22:34:15.600Z,74.34
2023-01-07T22:38:32.052Z,75.30
2023-01-07T22:42:51.535Z,75.05
2023-01-07T22:47:11.513Z,74.69
2023-01-07T22:51:35.852Z,74.91
2023-01-07T23:00:26.936Z,75.34
2023-01-07T23:04:36.214Z,74.19
2023-01-07T23:08:45.910Z,74.16
2023-01-07T23:12:53.357Z,73.79
2023-01-07T23:16:59.356Z,73.78
2023-01-07T23:21:05.435Z,73.56
2023-01-07T23:25:09.983Z,73.79
2023-01-07T23:29:13.395Z,73.92
2023-01-07T23:33:18.230Z,74.08
2023-01-07T23:37:21.190Z,74.77
2023-01-07T23:41:24.718Z,75.84
2023-01-07T23:45:28.407Z,75.70
2023-01-07T23:49:33.284Z,76.14
2023-01-07T23:53:36.700Z,76.52
2023-01-07T23:57:40.107Z,75.95
